Carney, Michigan
Current Conditions -  °F | °C
As of 4:55 PM on Tuesday 27 Jan 2015 (Local Time) from KESC Reporting Station
Overcast Overcast  
Wind Chill: 21°   Ceiling: 2400
Heat Index: 21°   Visibility: 10mi
Dew Point: 16°   Wind: 0mph
Humidity: 80%   Direction: NA
Pressure: 30.25"   Gusts: NA
Location:  45.59°N, 87.56°W
Report Text: KESC 272255Z AUTO 00000KT 10SM OVC024 M06/M09 A3025 RMK AO1
Loading
Personal Weather Stations






























Interactive Weather Map New forecast layout! Learn more

10-Day Weather Forecast

Advertisements
Track Severe Weather on mobile